»·PEaware :: N7744S KWHP-KSBD

N7744S :: KWHP-KSBD

FLIGHT INFORMATION

Flight Status: Arrived
Operator: Privately registered:
United States
More flights under this callsign
Pilot: Ryan B. (29018)
Aircraft: CESSNA 172 SKYHAWK
(C172)
More flights by this aircraft type
Origin: KWHP Whiteman
United States
Destination: KSBD San Bernardino Intl
United States
More flights between these airports :: More routes between these airports
Route: +WHITEMAN1 VNY V186 PDZ
File this flight plan on PilotEdge
Remarks:
Altitude:
(Current/Filed)
7,000ft
Speed:
(Current/Filed)
120kts
Departed: 27-Aug-20 02:36 PM
Arrived: 27-Aug-20 03:19 PM
Distance/Time
Traveled:
59nm/0:43
Distance/Time
To Go:
Arrived

Flight Plot

Page will automatically refresh every two minutes.

Flight plan parsing failed; only flown route is shown


Map Options




Map Legend


Flown Route
Filed Route
Departure Airport
Arrival Airport
Navaid (VOR, NDB)
Fix

Horizontal Profiles

Position Reports

Time Latitude Longitude Heading Altitude Ground
Speed
27-Aug-20 14:26 34.260370 -118.413372 319 997ft 0kts
27-Aug-20 14:27 34.260370 -118.413372 319 997ft 0kts
27-Aug-20 14:28 34.260370 -118.413372 319 997ft 0kts
27-Aug-20 14:29 34.260370 -118.413372 319 997ft 0kts
27-Aug-20 14:30 34.260382 -118.413386 315 997ft 0kts
27-Aug-20 14:31 34.258803 -118.412252 136 988ft 12kts
27-Aug-20 14:32 34.256836 -118.409904 193 976ft 0kts
27-Aug-20 14:32 34.256836 -118.409904 193 976ft 0kts
27-Aug-20 14:34 34.256836 -118.409904 193 976ft 0kts
27-Aug-20 14:34 34.256511 -118.409826 150 974ft 9kts
27-Aug-20 14:35 34.258937 -118.413109 318 1021ft 73kts
27-Aug-20 14:37 34.269880 -118.435349 272 2023ft 70kts
27-Aug-20 14:37 34.270702 -118.456410 272 2623ft 80kts
27-Aug-20 14:38 34.271838 -118.483465 272 3426ft 82kts
27-Aug-20 14:39 34.273385 -118.510782 291 4222ft 80kts
27-Aug-20 14:40 34.287868 -118.526856 262 4968ft 75kts
27-Aug-20 14:41 34.263575 -118.526325 146 4991ft 126kts
27-Aug-20 14:42 34.234352 -118.502046 145 4988ft 128kts
27-Aug-20 14:43 34.214349 -118.467125 117 4988ft 128kts
27-Aug-20 14:44 34.199648 -118.427897 108 4988ft 128kts
27-Aug-20 14:45 34.190431 -118.386007 106 4988ft 128kts
27-Aug-20 14:46 34.180100 -118.344556 111 4987ft 128kts
27-Aug-20 14:47 34.166977 -118.304141 111 4988ft 128kts
27-Aug-20 14:48 34.153773 -118.263898 111 4988ft 128kts
27-Aug-20 14:49 34.140462 -118.223616 111 4988ft 128kts
27-Aug-20 14:50 34.127107 -118.183489 111 4988ft 128kts
27-Aug-20 14:51 34.113637 -118.143299 112 4988ft 128kts
27-Aug-20 14:52 34.101807 -118.102421 107 4988ft 128kts
27-Aug-20 14:53 34.091165 -118.061154 107 4988ft 128kts
27-Aug-20 14:54 34.080118 -118.019993 109 4988ft 128kts
27-Aug-20 14:55 34.068080 -117.979129 109 4988ft 128kts
27-Aug-20 14:56 34.055970 -117.938542 110 4988ft 128kts
27-Aug-20 14:57 34.043611 -117.899360 110 5141ft 125kts
27-Aug-20 14:58 34.030911 -117.859438 110 5138ft 128kts
27-Aug-20 14:59 34.017466 -117.819345 111 5138ft 128kts
27-Aug-20 15:00 34.003890 -117.779375 112 5138ft 128kts
27-Aug-20 15:01 33.990246 -117.739486 112 5138ft 128kts
27-Aug-20 15:02 33.976788 -117.699418 101 5135ft 129kts
27-Aug-20 15:03 33.977992 -117.656331 82 5138ft 128kts
27-Aug-20 15:04 33.982514 -117.613578 82 5138ft 128kts
27-Aug-20 15:05 33.986984 -117.570578 82 5138ft 128kts
27-Aug-20 15:06 33.991350 -117.527720 82 5138ft 128kts
27-Aug-20 15:07 33.995619 -117.484959 82 5138ft 128kts
27-Aug-20 15:08 33.999814 -117.442037 82 5138ft 128kts
27-Aug-20 15:09 34.003911 -117.399226 83 5138ft 128kts
27-Aug-20 15:10 34.007937 -117.356222 83 5138ft 128kts
27-Aug-20 15:11 34.018585 -117.316769 70 4579ft 121kts
27-Aug-20 15:12 34.029918 -117.278671 70 3778ft 120kts
27-Aug-20 15:13 34.046840 -117.244144 54 2975ft 119kts
27-Aug-20 15:14 34.065320 -117.212913 54 2506ft 97kts
27-Aug-20 15:15 34.080491 -117.187188 54 2540ft 90kts
27-Aug-20 15:16 34.101102 -117.184181 332 1991ft 76kts
27-Aug-20 15:17 34.104184 -117.204556 248 1393ft 65kts
27-Aug-20 15:18 34.098467 -117.223992 250 1146ft 26kts
27-Aug-20 15:19 34.095391 -117.235704 304 1115ft 25kts
27-Aug-20 15:20 34.097130 -117.236949 332 1112ft 21kts
27-Aug-20 15:21 34.103263 -117.241350 318 1107ft 24kts

Navigation Log

Ident Type
Flight plan parsing failed, navigation log unavailable